Time;durP1;ratioP1;P1;durP2;ratioP2;P2;SDS_P1;SDS_P2;PMS_P1;PMS_P2;Temp;Humidity;BMP_temperature;BMP_pressure;BME280_temperature;BME280_humidity;BME280_pressure;Samples;Min_cycle;Max_cycle;Signal;HPM_P1;HPM_P2
2022/12/26 00:01:31;;;;;;;4.30;3.40;;;;;;;10.91;100.00;98388.97;4204721;28;20234;-49
2022/12/26 00:03:33;;;;;;;3.03;2.75;;;;;;;11.00;100.00;98392.94;4216567;27;20316;-47
2022/12/26 00:05:36;;;;;;;2.95;2.65;;;;;;;11.00;100.00;98392.94;4200276;28;20232;-49
2022/12/26 00:07:38;;;;;;;2.97;2.67;;;;;;;10.89;100.00;98396.63;4199583;28;20963;-48
2022/12/26 00:09:39;;;;;;;4.50;2.80;;;;;;;10.89;100.00;98402.09;4200525;28;20230;-48
2022/12/26 00:11:41;;;;;;;3.22;3.03;;;;;;;10.94;100.00;98399.41;4199740;28;20298;-48
2022/12/26 00:13:46;;;;;;;3.65;3.22;;;;;;;10.91;100.00;98394.44;4202940;28;20663;-48
2022/12/26 00:15:47;;;;;;;2.60;2.22;;;;;;;10.98;100.00;98395.06;4202740;28;20293;-48
2022/12/26 00:17:49;;;;;;;2.60;2.40;;;;;;;10.96;100.00;98389.03;4217356;27;20229;-48
2022/12/26 00:19:51;;;;;;;2.50;2.28;;;;;;;10.96;100.00;98386.28;4201781;28;20309;-47
2022/12/26 00:21:52;;;;;;;2.50;2.08;;;;;;;10.93;100.00;98392.31;4200560;28;20225;-48
2022/12/26 00:23:56;;;;;;;3.08;2.58;;;;;;;10.88;100.00;98400.44;4199891;28;20242;-48
2022/12/26 00:26:16;;;;;;;2.58;2.33;;;;;;;10.97;100.00;98401.63;4202057;28;20284;-48
2022/12/26 00:28:17;;;;;;;2.60;2.40;;;;;;;10.95;100.00;98395.59;4198434;28;20229;-47
2022/12/26 00:30:19;;;;;;;2.60;2.40;;;;;;;10.93;100.00;98389.56;4201238;28;20648;-48
2022/12/26 00:32:21;;;;;;;2.80;2.60;;;;;;;10.88;100.00;98389.50;4199758;28;20727;-48
2022/12/26 00:34:23;;;;;;;2.38;2.15;;;;;;;10.89;100.00;98391.13;4216375;27;20282;-48
2022/12/26 00:36:28;;;;;;;2.40;2.10;;;;;;;10.94;100.00;98387.63;4217351;27;20223;-48
2022/12/26 00:38:30;;;;;;;2.33;2.13;;;;;;;10.89;100.00;98402.09;4215742;27;20226;-48
2022/12/26 00:40:32;;;;;;;2.15;1.95;;;;;;;10.91;100.00;98394.44;4201351;28;20253;-49
2022/12/26 00:42:33;;;;;;;2.33;2.13;;;;;;;10.85;100.00;98389.19;4199884;28;20722;-48
2022/12/26 00:44:35;;;;;;;2.78;2.30;;;;;;;10.88;100.00;98385.09;4180958;28;20270;-48
2022/12/26 00:46:37;;;;;;;2.75;2.50;;;;;;;10.91;100.00;98383.50;4219119;27;20260;-49
2022/12/26 00:48:38;;;;;;;2.10;1.80;;;;;;;10.89;100.00;98379.34;4198436;28;20242;-48
2022/12/26 00:50:41;;;;;;;2.88;2.63;;;;;;;10.97;100.00;98382.47;4198733;28;20818;-48
2022/12/26 00:52:42;;;;;;;2.15;1.95;;;;;;;10.98;100.00;98378.66;4197918;28;20332;-48
2022/12/26 00:54:44;;;;;;;1.90;1.70;;;;;;;10.98;100.00;98380.56;4216512;28;20214;-49
2022/12/26 00:56:46;;;;;;;2.03;1.83;;;;;;;11.02;100.00;98368.00;4199238;28;20202;-49
2022/12/26 00:58:48;;;;;;;3.03;2.30;;;;;;;11.04;100.00;98374.88;4182142;28;20231;-48
2022/12/26 01:00:50;;;;;;;2.47;2.28;;;;;;;11.01;100.00;98375.41;4198671;28;20203;-48
2022/12/26 01:02:52;;;;;;;2.20;2.00;;;;;;;10.97;100.00;98370.72;4199966;28;20257;-49
2022/12/26 01:04:54;;;;;;;1.95;1.35;;;;;;;10.97;100.00;98396.16;4215498;28;20271;-49
2022/12/26 01:06:55;;;;;;;2.22;2.03;;;;;;;10.96;100.00;98408.19;4201676;28;21890;-49
2022/12/26 01:08:58;;;;;;;2.35;2.15;;;;;;;10.92;100.00;98407.03;4204214;28;20628;-49
2022/12/26 01:11:08;;;;;;;2.60;1.98;;;;;;;10.96;100.00;98408.19;4199064;28;20222;-49
2022/12/26 01:13:10;;;;;;;2.80;2.60;;;;;;;10.93;100.00;98408.72;4198865;28;20265;-50
2022/12/26 01:15:14;;;;;;;2.40;1.73;;;;;;;10.94;100.00;98399.41;4218298;28;20242;-48
2022/12/26 01:17:15;;;;;;;3.08;1.95;;;;;;;11.01;100.00;98405.53;4198688;28;20226;-49
2022/12/26 01:19:17;;;;;;;1.95;1.65;;;;;;;11.02;100.00;98401.69;4198033;28;20258;-48
2022/12/26 01:21:19;;;;;;;1.63;1.52;;;;;;;11.01;100.00;98405.53;4197122;28;20245;-48
2022/12/26 01:23:20;;;;;;;5.35;1.98;;;;;;;11.00;100.00;98403.88;4187785;28;20237;-49
2022/12/26 01:25:22;;;;;;;1.95;1.67;;;;;;;10.98;100.00;98416.97;4195963;28;20301;-50
2022/12/26 01:27:25;;;;;;;1.70;1.60;;;;;;;11.01;100.00;98411.00;4200718;28;20280;-48
2022/12/26 01:29:26;;;;;;;2.10;1.90;;;;;;;11.02;100.00;98417.28;4214535;28;20257;-49
2022/12/26 01:31:28;;;;;;;2.35;1.67;;;;;;;11.06;100.00;98424.78;4202688;28;20206;-48
2022/12/26 01:33:31;;;;;;;1.95;1.65;;;;;;;11.05;100.00;98414.88;4197490;28;20388;-49
2022/12/26 01:35:33;;;;;;;1.67;1.58;;;;;;;11.06;100.00;98411.06;4198231;28;20210;-49
2022/12/26 01:37:34;;;;;;;2.03;1.92;;;;;;;11.22;100.00;98418.38;4202134;28;20212;-48
2022/12/26 01:39:36;;;;;;;3.65;1.85;;;;;;;11.20;100.00;98423.28;4201952;28;20230;-49
2022/12/26 01:41:39;;;;;;;2.10;2.00;;;;;;;11.20;100.00;98436.97;4218374;28;20252;-49
2022/12/26 01:43:51;;;;;;;1.67;1.58;;;;;;;11.23;100.00;98454.81;4198205;28;20210;-49
2022/12/26 01:45:53;;;;;;;2.80;1.98;;;;;;;11.23;100.00;98449.34;4200570;28;20297;-48
2022/12/26 01:48:02;;;;;;;1.75;1.63;;;;;;;11.24;100.00;98451.81;4187873;28;20237;-49
2022/12/26 01:50:05;;;;;;;1.65;1.55;;;;;;;11.20;100.00;98447.09;4202471;28;20546;-48
2022/12/26 01:52:12;;;;;;;2.03;1.90;;;;;;;11.20;100.00;98456.16;4213110;28;20202;-49
2022/12/26 01:54:14;;;;;;;1.42;1.33;;;;;;;11.23;100.00;98452.91;4202732;28;20209;-48
2022/12/26 01:56:41;;;;;;;1.40;1.30;;;;;;;11.19;100.00;98446.28;4215991;28;20793;-49
2022/12/26 01:58:51;;;;;;;1.85;1.75;;;;;;;11.16;100.00;98456.91;4202061;28;20665;-48
2022/12/26 02:00:53;;;;;;;1.73;1.63;;;;;;;11.23;100.00;98444.69;4193295;28;20285;-48
2022/12/26 02:05:33;;;;;;;1.98;1.73;;;;;;;11.15;100.00;98482.63;4201812;28;20207;-49
2022/12/26 02:07:38;;;;;;;1.92;1.73;;;;;;;11.12;100.00;98473.00;4201939;28;20214;-48
2022/12/26 02:09:43;;;;;;;2.25;1.95;;;;;;;11.17;100.00;98488.69;4199113;28;20233;-49
2022/12/26 02:11:57;;;;;;;2.08;1.70;;;;;;;11.15;100.00;98472.53;4200337;28;20698;-48
2022/12/26 02:14:19;;;;;;;3.35;1.40;;;;;;;11.31;100.00;98470.81;4203531;28;20214;-48
2022/12/26 02:16:20;;;;;;;1.65;1.50;;;;;;;11.23;100.00;98452.09;4197155;28;20218;-48
2022/12/26 02:18:22;;;;;;;2.13;2.03;;;;;;;11.26;100.00;98455.13;4197828;28;20273;-48
2022/12/26 02:20:32;;;;;;;1.50;1.40;;;;;;;11.32;100.00;98456.00;4216379;28;20545;-48
2022/12/26 02:23:11;;;;;;;2.45;1.40;;;;;;;11.37;100.00;98456.88;4198218;28;20206;-48
2022/12/26 02:25:24;;;;;;;2.17;1.52;;;;;;;11.31;100.00;98449.69;4206918;28;20234;-49
2022/12/26 02:27:32;;;;;;;1.33;1.23;;;;;;;11.38;100.00;98458.53;4208118;28;20309;-48
2022/12/26 02:29:56;;;;;;;1.85;1.73;;;;;;;11.36;100.00;98457.97;4207612;28;20317;-48
2022/12/26 02:32:08;;;;;;;3.22;1.60;;;;;;;11.35;100.00;98445.38;4206685;28;20226;-48
2022/12/26 02:34:14;;;;;;;2.20;1.55;;;;;;;11.38;100.00;98446.78;4198252;28;20213;-49
2022/12/26 02:36:21;;;;;;;4.63;2.17;;;;;;;11.33;100.00;98446.72;4219682;27;20659;-49
2022/12/26 02:38:46;;;;;;;1.77;1.25;;;;;;;11.29;100.00;98445.56;4205942;28;20313;-49
2022/12/26 02:40:56;;;;;;;5.85;1.52;;;;;;;11.24;100.00;98443.59;4198982;28;20216;-48
2022/12/26 02:43:22;;;;;;;1.75;1.55;;;;;;;11.30;100.00;98439.81;4200259;28;20766;-48
2022/12/26 02:48:06;;;;;;;2.03;1.92;;;;;;;11.27;100.00;98434.88;4203369;28;20231;-49
2022/12/26 03:14:49;;;;;;;2.92;1.73;;;;;;;11.37;100.00;98415.78;4218865;27;20230;-48
2022/12/26 03:19:15;;;;;;;2.00;1.58;;;;;;;11.38;100.00;98433.88;4217632;27;20245;-48
2022/12/26 03:21:20;;;;;;;3.10;2.38;;;;;;;11.33;100.00;98442.06;4201425;28;20303;-48
2022/12/26 03:23:23;;;;;;;3.92;1.63;;;;;;;11.24;100.00;98427.16;4216529;28;20245;-48
2022/12/26 03:27:46;;;;;;;2.03;1.83;;;;;;;11.20;100.00;98430.66;4218589;27;20240;-49
2022/12/26 03:32:10;;;;;;;2.30;2.10;;;;;;;11.19;100.00;98434.50;4216876;27;20213;-48
2022/12/26 03:34:18;;;;;;;1.45;1.20;;;;;;;11.17;100.00;98437.47;4204399;28;20210;-49
2022/12/26 03:36:38;;;;;;;1.60;1.50;;;;;;;11.23;100.00;98439.19;4199877;28;22405;-49
2022/12/26 03:39:06;;;;;;;1.65;1.55;;;;;;;11.15;100.00;98436.91;4201204;28;20254;-49
2022/12/26 04:19:24;;;;;;;1.88;1.58;;;;;;;11.16;100.00;98452.25;4216184;28;20423;-49
2022/12/26 04:45:53;;;;;;;1.63;1.33;;;;;;;11.23;100.00;98465.78;4219178;27;20213;-49
2022/12/26 04:50:15;;;;;;;1.45;1.30;;;;;;;11.28;100.00;98463.91;4217817;27;20237;-48
2022/12/26 04:52:17;;;;;;;1.73;1.60;;;;;;;11.28;100.00;98458.44;4200852;28;20203;-48
2022/12/26 04:54:19;;;;;;;1.95;1.85;;;;;;;11.28;100.00;98461.19;4196358;28;20209;-48
2022/12/26 04:56:21;;;;;;;1.27;1.17;;;;;;;11.30;100.00;98459.00;4188186;28;20243;-48
2022/12/26 04:58:23;;;;;;;2.70;1.73;;;;;;;11.23;100.00;98455.63;4201944;28;20309;-49
2022/12/26 05:00:27;;;;;;;2.60;1.80;;;;;;;11.32;100.00;98451.34;4214961;27;20224;-48
2022/12/26 05:09:51;;;;;;;2.80;2.20;;;;;;;11.33;100.00;98453.03;4217745;27;20218;-48
2022/12/26 05:11:52;;;;;;;1.52;1.42;;;;;;;11.32;100.00;98451.34;4201457;28;20648;-48
2022/12/26 05:13:55;;;;;;;1.70;1.60;;;;;;;11.35;100.00;98467.28;4215620;27;20289;-48
2022/12/26 05:30:04;;;;;;;1.50;1.40;;;;;;;11.39;100.00;98456.63;4217910;28;20202;-49
2022/12/26 05:32:05;;;;;;;2.75;2.55;;;;;;;11.38;100.00;98457.72;4202018;28;20273;-49
2022/12/26 05:34:09;;;;;;;2.42;1.33;;;;;;;11.40;100.00;98459.13;4200428;28;20720;-49
2022/12/26 05:36:12;;;;;;;1.58;1.48;;;;;;;11.42;100.00;98462.44;4198303;28;20207;-49
2022/12/26 05:38:14;;;;;;;3.30;2.10;;;;;;;11.39;100.00;98465.69;4216592;28;20198;-48
2022/12/26 05:40:16;;;;;;;2.00;1.85;;;;;;;11.36;100.00;98473.56;4201799;28;20221;-48
2022/12/26 05:42:17;;;;;;;1.77;1.55;;;;;;;11.39;100.00;98479.41;4186567;28;20251;-48
2022/12/26 05:44:19;;;;;;;1.42;1.33;;;;;;;11.38;100.00;98471.44;4197294;28;20206;-48
2022/12/26 05:46:21;;;;;;;2.47;2.10;;;;;;;11.30;100.00;98478.19;4216904;28;20698;-48
2022/12/26 05:48:23;;;;;;;3.78;2.28;;;;;;;11.41;100.00;98481.88;4200234;28;20686;-49
2022/12/26 05:50:25;;;;;;;2.33;1.60;;;;;;;11.39;100.00;98482.13;4188474;28;20392;-49
2022/12/26 05:52:26;;;;;;;3.20;1.45;;;;;;;11.36;100.00;98476.31;4200526;28;20203;-48
2022/12/26 05:54:28;;;;;;;1.80;1.70;;;;;;;11.37;100.00;98476.06;4208128;28;20315;-48
2022/12/26 05:56:30;;;;;;;1.98;1.40;;;;;;;11.29;100.00;98465.56;4220445;27;20207;-49
2022/12/26 05:58:32;;;;;;;2.22;1.73;;;;;;;11.29;100.00;98479.25;4205104;28;20257;-48
2022/12/26 06:00:34;;;;;;;2.05;1.85;;;;;;;11.19;100.00;98473.69;4202300;28;20333;-49
2022/12/26 06:02:35;;;;;;;2.97;1.85;;;;;;;11.11;100.00;98476.84;4217411;28;20234;-49
2022/12/26 06:04:37;;;;;;;2.95;1.63;;;;;;;11.08;100.00;98471.88;4198793;28;20211;-48
2022/12/26 06:06:39;;;;;;;3.00;1.70;;;;;;;11.00;100.00;98477.81;4188767;28;20235;-49
2022/12/26 06:08:49;;;;;;;1.88;1.75;;;;;;;10.96;100.00;98479.38;4201334;28;20242;-50
2022/12/26 06:10:52;;;;;;;1.58;1.48;;;;;;;10.88;100.00;98481.72;4203856;28;20246;-48
2022/12/26 06:12:55;;;;;;;2.20;2.00;;;;;;;10.78;100.00;98487.06;4217042;27;20680;-49
2022/12/26 06:14:57;;;;;;;2.42;2.22;;;;;;;10.70;100.00;98486.66;4201377;28;20734;-49
2022/12/26 06:16:58;;;;;;;2.85;2.15;;;;;;;10.68;100.00;98497.84;4199205;28;20606;-49
2022/12/26 06:19:00;;;;;;;2.22;1.98;;;;;;;10.60;100.00;98487.34;4189757;28;20277;-49
2022/12/26 06:21:10;;;;;;;4.90;1.95;;;;;;;10.59;100.00;98495.78;4189155;28;20212;-49
2022/12/26 06:23:11;;;;;;;2.28;1.70;;;;;;;10.57;100.00;98489.75;4219965;27;20226;-49
2022/12/26 06:25:13;;;;;;;2.35;2.15;;;;;;;10.59;100.00;98493.06;4218240;27;20209;-49
2022/12/26 06:27:15;;;;;;;2.35;1.88;;;;;;;10.53;100.00;98494.06;4188164;28;20756;-50
2022/12/26 06:29:17;;;;;;;3.53;2.05;;;;;;;10.52;100.00;98495.13;4204257;28;20222;-50
2022/12/26 06:31:21;;;;;;;2.05;1.95;;;;;;;10.54;100.00;98471.13;4202188;28;20257;-48
2022/12/26 06:33:23;;;;;;;2.45;1.73;;;;;;;10.47;100.00;98471.28;4208008;28;20283;-49
2022/12/26 06:35:25;;;;;;;1.73;1.63;;;;;;;10.44;100.00;98473.69;4200203;28;20230;-49
2022/12/26 06:37:26;;;;;;;2.47;2.15;;;;;;;10.41;100.00;98479.66;4203526;28;20226;-49
2022/12/26 06:39:28;;;;;;;6.65;2.03;;;;;;;10.40;100.00;98478.81;4203395;28;20637;-50
2022/12/26 06:41:30;;;;;;;2.45;2.25;;;;;;;10.37;100.00;98478.50;4187729;28;20668;-49
2022/12/26 06:43:32;;;;;;;8.18;3.95;;;;;;;10.35;100.00;98494.34;4217006;27;20488;-48
2022/12/26 06:45:34;;;;;;;2.85;1.67;;;;;;;10.42;100.00;98486.78;4203679;28;20692;-48
2022/12/26 06:47:36;;;;;;;4.32;2.08;;;;;;;10.34;100.00;98493.50;4218528;27;20265;-50
2022/12/26 06:49:37;;;;;;;1.80;1.70;;;;;;;10.34;100.00;98498.16;4215898;28;20554;-49
2022/12/26 06:51:40;;;;;;;1.85;1.75;;;;;;;10.35;100.00;98497.06;4199299;28;20233;-48
2022/12/26 06:53:42;;;;;;;2.85;2.65;;;;;;;10.33;100.00;98493.72;4191398;28;20914;-48
2022/12/26 06:55:44;;;;;;;4.97;2.95;;;;;;;10.34;100.00;98484.47;4201155;28;20237;-48
2022/12/26 06:57:45;;;;;;;2.50;2.25;;;;;;;10.35;100.00;98497.06;4201789;28;20297;-48
2022/12/26 06:59:47;;;;;;;3.50;2.60;;;;;;;10.36;100.00;98493.25;4199457;28;20231;-49
2022/12/26 07:01:49;;;;;;;2.10;1.95;;;;;;;10.34;100.00;98506.34;4217535;27;20286;-50
2022/12/26 07:03:52;;;;;;;3.08;2.20;;;;;;;10.34;100.00;98509.91;4220883;27;20209;-49
2022/12/26 07:05:54;;;;;;;2.55;2.35;;;;;;;10.34;100.00;98517.31;4218376;28;20676;-50
2022/12/26 07:07:56;;;;;;;3.47;2.13;;;;;;;10.37;100.00;98522.25;4202387;28;20313;-48
2022/12/26 07:09:57;;;;;;;2.45;2.25;;;;;;;10.32;100.00;98517.53;4215233;28;20256;-49
2022/12/26 07:11:59;;;;;;;11.35;2.53;;;;;;;10.33;100.00;98537.50;4191842;28;20230;-49
2022/12/26 07:14:01;;;;;;;2.30;2.10;;;;;;;10.28;100.00;98530.03;4182933;28;20207;-49
2022/12/26 07:16:03;;;;;;;2.42;2.17;;;;;;;10.34;100.00;98541.91;4204350;28;20286;-49
2022/12/26 07:18:05;;;;;;;2.55;2.10;;;;;;;10.39;100.00;98531.03;4202934;28;20229;-49
2022/12/26 07:20:07;;;;;;;3.20;2.03;;;;;;;10.30;100.00;98538.00;4222264;27;20215;-49
2022/12/26 07:22:09;;;;;;;3.80;2.22;;;;;;;10.35;100.00;98535.34;4198467;28;20211;-49
2022/12/26 07:24:16;;;;;;;2.30;2.03;;;;;;;10.34;100.00;98545.47;4183250;28;20860;-49
2022/12/26 07:26:18;;;;;;;2.35;1.77;;;;;;;10.37;100.00;98550.44;4219577;27;20199;-49
2022/12/26 07:28:20;;;;;;;2.20;1.73;;;;;;;10.37;100.00;98544.97;4201086;28;20666;-49
2022/12/26 07:30:21;;;;;;;1.98;1.88;;;;;;;10.36;100.00;98543.28;4189961;28;20216;-49
2022/12/26 07:32:23;;;;;;;1.60;1.35;;;;;;;10.39;100.00;98536.50;4187464;28;20751;-49
2022/12/26 07:34:25;;;;;;;3.28;1.73;;;;;;;10.34;100.00;98550.94;4188546;28;20571;-50
2022/12/26 07:36:32;;;;;;;1.77;1.67;;;;;;;10.39;100.00;98536.50;4189189;28;20201;-49
2022/12/26 07:38:34;;;;;;;1.70;1.60;;;;;;;10.34;100.00;98529.03;4201747;28;20254;-49
2022/12/26 07:40:36;;;;;;;2.28;1.90;;;;;;;10.35;100.00;98521.69;4222861;27;20206;-49
2022/12/26 07:42:38;;;;;;;3.92;2.08;;;;;;;10.29;100.00;98541.81;4207570;28;20346;-49
2022/12/26 07:44:40;;;;;;;2.08;1.80;;;;;;;10.31;100.00;98539.66;4203967;28;20209;-49
2022/12/26 07:46:45;;;;;;;1.40;1.27;;;;;;;10.29;100.00;98548.09;4186974;28;20220;-49
2022/12/26 07:48:47;;;;;;;1.45;1.35;;;;;;;10.29;100.00;98550.03;4197965;28;20233;-49
2022/12/26 07:50:50;;;;;;;1.80;1.70;;;;;;;10.26;100.00;98553.25;4202924;28;20227;-49
2022/12/26 07:52:52;;;;;;;2.03;1.65;;;;;;;10.30;100.00;98565.34;4192619;28;20638;-49
2022/12/26 07:54:53;;;;;;;1.58;1.48;;;;;;;10.30;100.00;98570.81;4200106;28;20234;-48
2022/12/26 07:56:55;;;;;;;2.40;1.35;;;;;;;10.21;100.00;98567.66;4189813;28;20198;-49
2022/12/26 07:59:17;;;;;;;1.98;1.88;;;;;;;10.28;100.00;98575.72;4206103;28;20268;-49
2022/12/26 08:01:19;;;;;;;1.58;1.48;;;;;;;10.27;100.00;98582.28;4202858;28;20203;-49
2022/12/26 08:03:21;;;;;;;1.92;1.83;;;;;;;10.24;100.00;98582.75;4205475;28;20251;-49
2022/12/26 08:05:23;;;;;;;1.60;1.50;;;;;;;10.21;100.00;98583.25;4218757;27;20212;-49
2022/12/26 08:07:25;;;;;;;2.60;1.20;;;;;;;10.23;100.00;98592.03;4205069;28;20233;-49
2022/12/26 08:09:27;;;;;;;4.57;1.90;;;;;;;10.22;100.00;98593.09;4202027;28;20709;-49
2022/12/26 08:11:31;;;;;;;1.55;1.45;;;;;;;10.22;100.00;98606.78;4203869;28;20796;-49
2022/12/26 08:13:33;;;;;;;2.38;2.17;;;;;;;10.24;100.00;98588.22;4185520;28;21165;-49
2022/12/26 08:15:39;;;;;;;2.17;1.98;;;;;;;10.21;100.00;98595.00;4217140;27;20207;-49
2022/12/26 08:17:41;;;;;;;2.97;2.13;;;;;;;10.21;100.00;98589.53;4214969;27;20344;-48
2022/12/26 08:19:43;;;;;;;1.90;1.75;;;;;;;10.26;100.00;98588.78;4202067;28;20223;-49
2022/12/26 08:21:45;;;;;;;1.75;1.48;;;;;;;10.23;100.00;98592.03;4197899;28;20690;-49
2022/12/26 08:23:47;;;;;;;1.60;1.50;;;;;;;10.18;100.00;98586.47;4213525;28;20234;-48
2022/12/26 08:25:49;;;;;;;1.48;1.40;;;;;;;10.21;100.00;98583.25;4188564;28;20298;-48
2022/12/26 08:27:50;;;;;;;1.85;1.45;;;;;;;10.15;100.00;98589.69;4200376;28;20692;-48
2022/12/26 08:29:52;;;;;;;1.50;1.40;;;;;;;10.17;100.00;98576.59;4216286;28;20539;-50
2022/12/26 08:31:54;;;;;;;2.22;1.77;;;;;;;10.14;100.00;98583.38;4203032;28;20249;-50
2022/12/26 08:33:56;;;;;;;2.88;1.25;;;;;;;10.11;100.00;98585.78;4185928;28;20576;-49
2022/12/26 08:36:03;;;;;;;1.20;1.10;;;;;;;10.13;100.00;98580.91;4183721;28;20286;-48
2022/12/26 08:38:05;;;;;;;1.23;1.13;;;;;;;10.12;100.00;98580.06;4198871;28;20257;-48
2022/12/26 08:40:07;;;;;;;1.23;1.17;;;;;;;10.12;100.00;98573.78;4200072;28;21125;-48
2022/12/26 08:42:09;;;;;;;1.65;1.30;;;;;;;10.16;100.00;98564.00;4201959;28;20230;-49
2022/12/26 08:44:13;;;;;;;1.60;1.50;;;;;;;10.16;100.00;98564.00;4205245;28;20262;-50
2022/12/26 08:46:30;;;;;;;1.65;1.55;;;;;;;10.07;100.00;98571.78;4217263;27;20245;-49
2022/12/26 08:48:32;;;;;;;1.90;1.63;;;;;;;10.08;100.00;98589.03;4217709;27;20356;-49
2022/12/26 08:50:34;;;;;;;1.83;1.73;;;;;;;10.13;100.00;98594.56;4187138;28;20237;-49
2022/12/26 08:52:42;;;;;;;3.28;1.50;;;;;;;10.08;100.00;98605.44;4190358;27;22615;-48
2022/12/26 08:54:44;;;;;;;1.85;1.33;;;;;;;10.06;100.00;98622.06;4201025;28;20563;-50
2022/12/26 08:56:45;;;;;;;1.27;1.27;;;;;;;10.09;100.00;98646.16;4185079;28;20317;-49
2022/12/26 08:58:47;;;;;;;1.38;1.27;;;;;;;10.12;100.00;98653.06;4198442;28;20227;-49
2022/12/26 09:00:50;;;;;;;1.63;1.52;;;;;;;10.12;100.00;98653.91;4200684;28;20578;-48
2022/12/26 09:02:56;;;;;;;1.70;1.60;;;;;;;10.12;100.00;98650.31;4199429;28;20772;-48
2022/12/26 09:04:57;;;;;;;2.53;1.40;;;;;;;10.12;100.00;98634.75;4199287;28;20215;-49
2022/12/26 09:06:59;;;;;;;1.55;1.45;;;;;;;10.15;100.00;98636.19;4202603;28;20248;-48
2022/12/26 09:09:02;;;;;;;1.75;1.65;;;;;;;10.13;100.00;98624.63;4198424;28;20310;-48
2022/12/26 09:11:15;;;;;;;1.60;1.50;;;;;;;10.13;100.00;98608.22;4201265;28;20234;-48
2022/12/26 09:13:18;;;;;;;1.55;1.45;;;;;;;10.07;100.00;98620.19;4216046;28;20206;-48
2022/12/26 09:15:20;;;;;;;1.27;1.17;;;;;;;10.11;100.00;98621.31;4216055;28;20208;-49
2022/12/26 09:17:22;;;;;;;2.53;1.42;;;;;;;10.15;100.00;98627.97;4199498;28;20309;-48
2022/12/26 09:19:28;;;;;;;2.97;2.03;;;;;;;10.19;100.00;98640.06;4199556;28;20284;-49
2022/12/26 09:21:30;;;;;;;2.33;1.52;;;;;;;10.15;100.00;98638.91;4216826;27;21310;-49
2022/12/26 09:23:33;;;;;;;2.08;1.25;;;;;;;10.15;100.00;98650.66;4217831;27;20301;-49
2022/12/26 09:25:36;;;;;;;2.00;1.80;;;;;;;10.22;100.00;98661.47;4217111;27;20236;-49
2022/12/26 09:27:37;;;;;;;2.30;2.10;;;;;;;10.23;100.00;98668.59;4199186;28;20293;-48
2022/12/26 09:29:39;;;;;;;2.78;1.50;;;;;;;10.28;100.00;98665.97;4184167;28;20665;-49
2022/12/26 09:31:41;;;;;;;2.65;1.80;;;;;;;10.29;100.00;98673.09;4199109;28;21880;-49
2022/12/26 09:33:44;;;;;;;1.83;1.70;;;;;;;10.30;100.00;98663.81;4201601;28;20301;-48
2022/12/26 09:35:46;;;;;;;1.42;1.33;;;;;;;10.33;100.00;98675.09;4214101;28;20210;-49
2022/12/26 09:37:48;;;;;;;1.73;1.63;;;;;;;10.35;100.00;98669.38;4186887;28;20289;-48
2022/12/26 09:39:50;;;;;;;1.33;1.25;;;;;;;10.32;100.00;98657.03;4195410;28;20725;-49
2022/12/26 09:42:03;;;;;;;4.25;1.60;;;;;;;10.33;100.00;98655.09;4214659;28;20209;-49
2022/12/26 09:44:13;;;;;;;1.63;1.52;;;;;;;10.36;100.00;98638.22;4200069;28;20203;-49
2022/12/26 09:46:18;;;;;;;1.40;1.30;;;;;;;10.37;100.00;98654.41;4216888;28;20228;-49
2022/12/26 09:48:25;;;;;;;2.08;1.30;;;;;;;10.37;100.00;98650.81;4217254;28;20305;-48
2022/12/26 09:50:29;;;;;;;1.35;1.25;;;;;;;10.43;100.00;98652.56;4197574;28;20238;-48
2022/12/26 09:52:34;;;;;;;1.35;1.25;;;;;;;10.44;100.00;98648.75;4215165;28;20290;-48
2022/12/26 09:54:51;;;;;;;1.33;1.23;;;;;;;10.46;100.00;98654.81;4200458;28;20658;-49
2022/12/26 09:56:54;;;;;;;1.05;0.88;;;;;;;10.49;100.00;98648.84;4200476;28;20203;-49
2022/12/26 09:59:13;;;;;;;1.33;1.23;;;;;;;10.46;100.00;98663.00;4195642;28;20256;-48
2022/12/26 10:01:22;;;;;;;1.35;1.23;;;;;;;10.41;100.00;98655.53;4197393;28;20297;-49
2022/12/26 10:03:24;;;;;;;1.02;1.02;;;;;;;10.44;100.00;98660.53;4202716;28;21982;-49
2022/12/26 10:05:33;;;;;;;4.63;1.88;;;;;;;10.46;100.00;98652.06;4215343;28;20241;-48
2022/12/26 10:07:36;;;;;;;1.30;1.20;;;;;;;10.45;100.00;98658.63;4198237;28;20234;-49
2022/12/26 10:09:47;;;;;;;1.40;1.02;;;;;;;10.47;100.00;98667.44;4196300;28;20233;-49
2022/12/26 10:12:03;;;;;;;2.42;1.30;;;;;;;10.46;100.00;98680.28;4200843;28;20201;-50
2022/12/26 10:14:26;;;;;;;1.73;1.63;;;;;;;10.44;100.00;98682.44;4199576;28;20920;-49
2022/12/26 10:16:57;;;;;;;1.38;1.27;;;;;;;10.47;100.00;98687.41;4202943;28;20343;-49
2022/12/26 10:19:28;;;;;;;1.13;1.13;;;;;;;10.52;100.00;98690.22;4181336;28;20311;-49
2022/12/26 10:21:41;;;;;;;1.58;1.48;;;;;;;10.55;100.00;98694.38;4197976;28;20260;-49
2022/12/26 10:23:46;;;;;;;1.73;1.63;;;;;;;10.55;100.00;98687.00;4193288;28;20678;-49
2022/12/26 10:26:12;;;;;;;1.42;1.30;;;;;;;10.62;100.00;98684.13;4216501;28;20282;-49
2022/12/26 10:28:39;;;;;;;1.50;1.40;;;;;;;10.62;100.00;98678.66;4198769;28;20211;-49
2022/12/26 10:30:42;;;;;;;1.10;1.00;;;;;;;10.59;100.00;98681.84;4202297;28;20241;-48
2022/12/26 10:32:52;;;;;;;1.30;1.20;;;;;;;10.56;100.00;98668.69;4214278;28;20214;-48
2022/12/26 10:34:54;;;;;;;1.60;1.48;;;;;;;10.55;100.00;98672.50;4210769;28;20692;-49
2022/12/26 10:37:16;;;;;;;1.58;1.48;;;;;;;10.54;100.00;98681.78;4192622;28;20238;-50
2022/12/26 10:39:24;;;;;;;1.40;1.20;;;;;;;10.48;100.00;98688.25;4196554;28;20256;-50
2022/12/26 10:41:32;;;;;;;1.33;1.23;;;;;;;10.39;100.00;98678.75;4206456;28;20229;-49
2022/12/26 10:43:39;;;;;;;1.08;1.08;;;;;;;10.42;100.00;98678.28;4200487;28;20241;-50
2022/12/26 10:45:46;;;;;;;1.35;1.35;;;;;;;10.43;100.00;98680.78;4205102;28;20226;-48
2022/12/26 10:47:51;;;;;;;1.63;1.52;;;;;;;10.49;100.00;98681.69;4205767;28;20254;-49
2022/12/26 10:49:53;;;;;;;2.20;1.63;;;;;;;10.50;100.00;98670.50;4200008;28;20797;-50
2022/12/26 10:51:57;;;;;;;1.80;1.70;;;;;;;10.54;100.00;98681.78;4199677;28;20199;-49
2022/12/26 10:53:59;;;;;;;1.98;1.52;;;;;;;10.60;100.00;98683.50;4208873;28;20210;-49
2022/12/26 10:56:01;;;;;;;1.35;1.23;;;;;;;10.67;100.00;98686.94;4190001;28;20203;-49
2022/12/26 10:58:19;;;;;;;1.55;1.45;;;;;;;10.70;100.00;98686.44;4200473;28;20207;-49
2022/12/26 11:00:26;;;;;;;1.60;1.50;;;;;;;10.71;100.00;98682.63;4221185;27;20271;-49
2022/12/26 11:02:30;;;;;;;2.08;1.00;;;;;;;10.75;100.00;98690.09;4220084;28;20282;-49
2022/12/26 11:04:32;;;;;;;4.63;1.25;;;;;;;10.78;100.00;98679.47;4202601;28;20202;-49
2022/12/26 11:06:55;;;;;;;1.35;1.15;;;;;;;10.77;100.00;98687.13;4205967;27;20202;-49
2022/12/26 11:08:58;;;;;;;1.92;1.55;;;;;;;10.75;100.00;98697.50;4202215;28;20226;-49
2022/12/26 11:11:03;;;;;;;1.30;1.20;;;;;;;10.80;100.00;98690.19;4191920;28;20217;-48
2022/12/26 11:13:07;;;;;;;1.20;0.93;;;;;;;10.77;100.00;98688.78;4215715;27;20297;-49
2022/12/26 11:15:19;;;;;;;1.33;1.23;;;;;;;10.79;100.00;98692.09;4206765;28;20206;-48
2022/12/26 11:17:27;;;;;;;1.13;1.05;;;;;;;10.76;100.00;98696.41;4217737;27;20210;-49
2022/12/26 11:19:36;;;;;;;1.27;1.17;;;;;;;10.81;100.00;98689.09;4208554;28;20403;-49
2022/12/26 11:21:37;;;;;;;1.15;1.15;;;;;;;10.79;100.00;98692.09;4217261;28;20293;-48
2022/12/26 11:23:39;;;;;;;0.98;0.98;;;;;;;10.75;100.00;98683.81;4189192;28;20309;-48
2022/12/26 11:25:53;;;;;;;2.13;1.83;;;;;;;10.79;100.00;98685.81;4203888;28;20241;-48
2022/12/26 11:27:57;;;;;;;2.08;1.27;;;;;;;10.75;100.00;98686.53;4201655;28;20202;-48
2022/12/26 11:30:13;;;;;;;2.03;1.20;;;;;;;10.73;100.00;98685.94;4204247;28;20283;-49
2022/12/26 11:32:19;;;;;;;2.85;1.08;;;;;;;10.77;100.00;98683.31;4205507;28;20199;-48
2022/12/26 11:34:36;;;;;;;4.00;2.75;;;;;;;10.72;100.00;98676.91;4205669;28;20662;-49
2022/12/26 11:36:44;;;;;;;3.80;3.50;;;;;;;10.73;100.00;98677.72;4202607;28;20210;-48
2022/12/26 11:38:58;;;;;;;1.73;1.63;;;;;;;10.73;100.00;98685.94;4203817;28;20249;-48
2022/12/26 11:41:30;;;;;;;1.50;1.40;;;;;;;10.74;100.00;98676.69;4220830;27;20205;-48
2022/12/26 11:43:32;;;;;;;3.10;1.40;;;;;;;10.79;100.00;98697.56;4216983;27;20615;-49
2022/12/26 11:45:40;;;;;;;1.60;1.50;;;;;;;10.72;100.00;98690.59;4202177;28;20314;-49